Aérodrome :
LOGIN :

S'inscrire | Disclaimer

   EN    FR    IT 

 










Légende :    VFR   VFR Marginal   IFR   IFR Intensif   IFR Très Intensif
Visi : 
Plafond : 
>= 8 km
>= 3000ft
5 à 8 km
1000 à 3000 ft
1500m à 5 km
500 à 1000 ft
800 à 1500m
200 à 500 ft
< 800m
< 200 ft
Symboles :   Orages  Brouillard  Fortes neiges  Fortes précipitations  Vent > 20 kt
SIGMETs :   Divers  Orages  Givrage  Turbulence  Onde Orograph.  Cendres Volcan.






- Altitude de l'aérodrome : 22 ft
- Code IATA : TUN


DTTA - Tunis Carthage

DERNIER METAR :
  • 141130Z 05006KT 360V130 9999 FEW040 28/13 Q1019

METARs EXPIRÉS :
  • 141100Z 01005KT 300V090 9999 FEW033 28/13 Q1019
  • 141030Z 01005KT 280V080 9999 FEW033 28/10 Q1020
  • 141000Z VRB04KT 9999 FEW033 27/11 Q1020
  • 140930Z VRB04KT 9999 FEW033 26/12 Q1020
  • 140900Z 28007KT 230V340 9999 FEW033 26/11 Q1020
  • 140830Z 30005KT 240V350 9999 FEW033 25/11 Q1020
  • 140800Z 29005KT 210V330 9999 FEW033 24/11 Q1020
  • 140730Z 30007KT 250V350 9999 FEW033 23/13 Q1020
  • 140700Z 28008KT 240V320 9999 FEW033 23/13 Q1020

TAF TAF DTTA
Valide du 14 à 12h jusqu'au 15 à 12h UTC


141100Z 1412/1512 01005KT 9999 FEW023
BECMG 1420/1422 09015KT
BECMG 1509/1512 18010KT



MET'MAP, la Météo Aéronautique d'un coup d'oeil ! - Copyright ORBIFLY Décembre 2007 - Disclaimer

ORBIFLY MET'MAP TEAM :

Programmation & Développement : Alexandra Zaïnal
Sur une idée originale de : Baudouin d'Aumeries
Soutien technique & logistique : Manuel Goepfert
Assistance : Marc-Olivier Méhu




SOURCES & CREDITS :

   NOAA